createdAt,value
2023-10-11T00:00:59.673Z,15.88
2023-10-11T00:03:35.360Z,15.80
2023-10-11T00:06:07.599Z,16.02
2023-10-11T00:08:42.283Z,16.00
2023-10-11T00:11:12.808Z,15.74
2023-10-11T00:13:42.095Z,15.70
2023-10-11T00:16:12.609Z,15.82
2023-10-11T00:18:43.131Z,15.99
2023-10-11T00:21:13.328Z,16.05
2023-10-11T00:23:44.417Z,16.16
2023-10-11T00:26:16.199Z,16.21
2023-10-11T00:28:45.177Z,16.20
2023-10-11T00:31:18.659Z,16.03
2023-10-11T00:33:49.602Z,15.89
2023-10-11T00:36:25.419Z,15.93
2023-10-11T00:38:53.812Z,15.85
2023-10-11T00:41:27.087Z,15.85
2023-10-11T00:43:55.975Z,15.91
2023-10-11T00:46:29.321Z,15.79
2023-10-11T00:49:10.658Z,15.99
2023-10-11T00:51:42.760Z,15.87
2023-10-11T00:54:14.444Z,15.55
2023-10-11T00:56:45.785Z,15.16
2023-10-11T00:59:17.571Z,15.00
2023-10-11T01:01:47.831Z,14.84
2023-10-11T01:04:18.093Z,14.60
2023-10-11T01:06:49.384Z,14.50
2023-10-11T01:09:19.696Z,14.21
2023-10-11T01:11:50.547Z,13.99
2023-10-11T01:14:19.174Z,14.77
2023-10-11T01:16:47.617Z,15.03
2023-10-11T01:19:18.677Z,14.87
2023-10-11T01:21:52.839Z,14.83
2023-10-11T01:24:21.684Z,14.55
2023-10-11T01:26:50.525Z,14.65
2023-10-11T01:29:19.420Z,14.81
2023-10-11T01:31:48.164Z,14.82
2023-10-11T01:34:16.963Z,15.00
2023-10-11T01:36:46.987Z,15.01
2023-10-11T01:39:17.174Z,14.74
2023-10-11T01:41:45.927Z,15.17
2023-10-11T01:44:14.526Z,15.12
2023-10-11T01:46:43.423Z,15.18
2023-10-11T01:49:14.743Z,15.06
2023-10-11T01:51:48.220Z,14.80
2023-10-11T01:54:18.543Z,15.05
2023-10-11T01:56:47.673Z,15.11
2023-10-11T01:59:17.755Z,15.24
2023-10-11T02:01:59.662Z,15.12
2023-10-11T02:04:30.638Z,15.35
2023-10-11T02:06:59.693Z,15.29
2023-10-11T02:09:29.576Z,15.39
2023-10-11T02:11:59.768Z,15.42
2023-10-11T02:14:29.638Z,15.48
2023-10-11T02:16:58.841Z,15.39
2023-10-11T02:19:27.337Z,15.43
2023-10-11T02:21:56.666Z,15.56
2023-10-11T02:24:27.663Z,15.72
2023-10-11T02:26:59.807Z,15.63
2023-10-11T02:29:29.232Z,15.53
2023-10-11T02:31:59.775Z,14.67
2023-10-11T02:34:29.013Z,15.02
2023-10-11T02:37:05.202Z,15.14
2023-10-11T02:39:36.351Z,15.25
2023-10-11T02:42:07.505Z,15.46
2023-10-11T02:44:41.257Z,15.78
2023-10-11T02:47:11.079Z,15.78
2023-10-11T02:49:39.912Z,15.68
2023-10-11T02:52:09.079Z,15.70
2023-10-11T02:54:42.317Z,15.71
2023-10-11T02:57:20.419Z,15.87
2023-10-11T02:59:52.912Z,15.70
2023-10-11T03:02:23.525Z,15.31
2023-10-11T03:04:52.792Z,14.86
2023-10-11T03:07:24.021Z,14.92
2023-10-11T03:09:56.044Z,14.73
2023-10-11T03:12:33.440Z,14.46
2023-10-11T03:15:10.148Z,14.56
2023-10-11T03:17:44.639Z,14.74
2023-10-11T03:20:37.719Z,14.86
2023-10-11T03:23:12.562Z,15.30
2023-10-11T03:25:45.756Z,15.64
2023-10-11T03:28:16.686Z,15.68
2023-10-11T03:30:45.199Z,15.52
2023-10-11T03:33:14.164Z,15.56
2023-10-11T03:35:45.204Z,15.70
2023-10-11T03:38:19.180Z,15.81
2023-10-11T03:40:57.068Z,15.87
2023-10-11T03:43:28.312Z,15.84
2023-10-11T03:46:01.661Z,15.84
2023-10-11T03:48:31.946Z,15.76
2023-10-11T03:51:01.114Z,15.87
2023-10-11T03:53:33.362Z,15.82
2023-10-11T03:56:03.490Z,15.55
2023-10-11T03:58:39.158Z,15.53
2023-10-11T04:01:15.818Z,15.46
2023-10-11T04:03:45.141Z,15.10
2023-10-11T04:06:16.853Z,14.40
2023-10-11T04:08:50.166Z,14.41
2023-10-11T04:11:20.727Z,14.33
2023-10-11T04:13:52.008Z,14.57
2023-10-11T04:16:20.366Z,14.93
2023-10-11T04:18:53.559Z,15.33
2023-10-11T04:21:39.542Z,15.47
2023-10-11T04:24:09.051Z,15.22
2023-10-11T04:26:41.469Z,15.20
2023-10-11T04:29:19.970Z,14.79
2023-10-11T04:32:11.434Z,14.93
2023-10-11T04:34:49.497Z,14.86
2023-10-11T04:37:29.199Z,14.98
2023-10-11T04:40:16.498Z,15.07
2023-10-11T04:42:45.026Z,14.92
2023-10-11T04:45:23.861Z,14.61
2023-10-11T04:47:56.685Z,14.78
2023-10-11T04:50:26.111Z,15.21
2023-10-11T04:52:57.635Z,15.64
2023-10-11T04:55:36.476Z,15.89
2023-10-11T04:58:08.770Z,16.07
2023-10-11T05:00:48.490Z,15.85
2023-10-11T05:03:19.323Z,15.99
2023-10-11T05:06:00.821Z,16.09
2023-10-11T05:08:43.282Z,16.17
2023-10-11T05:11:20.478Z,15.88
2023-10-11T05:14:01.322Z,15.62
2023-10-11T05:16:31.313Z,15.56
2023-10-11T05:19:06.245Z,16.33
2023-10-11T05:21:40.026Z,16.75
2023-10-11T05:24:34.942Z,16.67
2023-10-11T05:27:11.394Z,16.13
2023-10-11T05:30:00.247Z,15.72
2023-10-11T05:32:33.948Z,15.97
2023-10-11T05:35:28.118Z,16.38
2023-10-11T05:38:14.825Z,16.30
2023-10-11T05:41:00.334Z,16.45
2023-10-11T05:43:45.947Z,16.41
2023-10-11T05:46:31.519Z,16.31
2023-10-11T05:49:19.038Z,16.03
2023-10-11T05:51:49.623Z,15.52
2023-10-11T05:54:18.094Z,15.45
2023-10-11T05:56:48.907Z,15.66
2023-10-11T05:59:17.864Z,16.04
2023-10-11T06:01:46.613Z,16.20
2023-10-11T06:04:16.635Z,15.99
2023-10-11T06:06:48.159Z,15.14
2023-10-11T06:09:19.364Z,15.26
2023-10-11T06:11:51.032Z,15.23
2023-10-11T06:14:20.238Z,15.38
2023-10-11T06:16:58.677Z,15.93
2023-10-11T06:19:29.600Z,16.10
2023-10-11T06:21:58.932Z,15.82
2023-10-11T06:24:28.105Z,16.27
2023-10-11T06:26:58.216Z,16.66
2023-10-11T06:29:25.975Z,17.15
2023-10-11T06:32:09.222Z,17.97
2023-10-11T06:34:46.641Z,18.74
2023-10-11T06:37:18.454Z,19.18
2023-10-11T06:40:07.539Z,19.51
2023-10-11T06:45:22.031Z,19.92
2023-10-11T06:47:51.709Z,19.91
2023-10-11T06:50:25.871Z,20.34
2023-10-11T06:52:54.963Z,20.49
2023-10-11T06:55:27.124Z,20.63
2023-10-11T06:57:56.701Z,20.75
2023-10-11T07:00:29.806Z,21.01
2023-10-11T07:03:09.147Z,21.05
2023-10-11T07:05:43.293Z,21.70
2023-10-11T07:08:17.933Z,22.07
2023-10-11T07:10:47.979Z,22.24
2023-10-11T07:13:16.661Z,22.23
2023-10-11T07:15:46.593Z,22.36
2023-10-11T07:18:23.753Z,22.59
2023-10-11T07:21:08.944Z,22.76
2023-10-11T07:23:47.679Z,22.84
2023-10-11T07:26:45.520Z,23.31
2023-10-11T07:29:14.732Z,23.93
2023-10-11T07:31:51.154Z,24.21
2023-10-11T07:34:22.217Z,24.72
2023-10-11T07:36:52.401Z,24.77
2023-10-11T07:39:27.205Z,24.70
2023-10-11T07:42:06.214Z,25.08
2023-10-11T07:44:38.288Z,25.54
2023-10-11T07:47:16.459Z,25.56
2023-10-11T07:49:45.446Z,25.40
2023-10-11T07:52:21.066Z,25.70
2023-10-11T07:54:53.212Z,25.32
2023-10-11T07:57:23.765Z,25.42
2023-10-11T07:59:53.818Z,26.10
2023-10-11T08:02:33.581Z,25.59
2023-10-11T08:05:02.350Z,25.64
2023-10-11T08:07:32.239Z,26.37
2023-10-11T08:10:11.764Z,26.70
2023-10-11T08:12:41.018Z,26.62
2023-10-11T08:15:12.667Z,27.49
2023-10-11T08:17:42.346Z,28.02
2023-10-11T08:20:16.965Z,27.20
2023-10-11T08:22:48.575Z,27.94
2023-10-11T08:25:17.311Z,28.70
2023-10-11T08:27:53.028Z,28.34
2023-10-11T08:30:24.603Z,27.96
2023-10-11T08:32:54.092Z,28.48
2023-10-11T08:35:27.870Z,27.39
2023-10-11T08:38:03.439Z,28.73
2023-10-11T08:40:38.856Z,29.06
2023-10-11T08:43:10.816Z,29.36
2023-10-11T08:45:50.223Z,28.93
2023-10-11T08:48:19.782Z,28.50
2023-10-11T08:50:53.684Z,29.35
2023-10-11T08:53:25.768Z,29.53
2023-10-11T08:55:58.153Z,30.00
2023-10-11T08:58:29.226Z,30.55
2023-10-11T09:00:59.497Z,30.58
2023-10-11T09:03:33.213Z,30.98
2023-10-11T09:06:02.414Z,30.84
2023-10-11T09:08:34.785Z,31.82
2023-10-11T09:11:16.987Z,32.06
2023-10-11T09:13:45.386Z,31.37
2023-10-11T09:16:36.364Z,31.05
2023-10-11T09:19:08.157Z,30.31
2023-10-11T09:21:37.810Z,30.17
2023-10-11T09:24:24.995Z,30.36
2023-10-11T09:27:14.392Z,31.40
2023-10-11T09:29:44.335Z,31.35
2023-10-11T09:32:15.083Z,31.68
2023-10-11T09:34:44.175Z,32.53
2023-10-11T09:37:15.732Z,32.44
2023-10-11T09:39:46.125Z,32.30
2023-10-11T09:42:17.859Z,32.65
2023-10-11T09:44:48.275Z,33.66
2023-10-11T09:47:18.945Z,33.58
2023-10-11T09:49:52.489Z,33.52
2023-10-11T09:52:25.337Z,32.54
2023-10-11T09:54:55.906Z,32.34
2023-10-11T09:57:33.220Z,32.26
2023-10-11T10:00:10.279Z,32.08
2023-10-11T10:02:40.655Z,31.97
2023-10-11T10:05:09.340Z,33.05
2023-10-11T10:07:45.848Z,33.32
2023-10-11T10:10:17.894Z,33.75
2023-10-11T10:12:59.194Z,34.68
2023-10-11T10:15:34.237Z,33.12
2023-10-11T10:18:24.603Z,32.60
2023-10-11T10:21:06.969Z,32.92
2023-10-11T10:23:39.660Z,33.24
2023-10-11T10:26:44.819Z,33.43
2023-10-11T10:29:17.096Z,33.76
2023-10-11T10:32:07.729Z,33.25
2023-10-11T10:34:36.688Z,33.52
2023-10-11T10:37:16.328Z,33.07
2023-10-11T10:40:26.512Z,32.74
2023-10-11T10:43:25.204Z,32.88
2023-10-11T10:45:54.932Z,33.33
2023-10-11T10:48:25.141Z,32.14
2023-10-11T10:50:57.764Z,33.24
2023-10-11T10:53:29.010Z,33.82
2023-10-11T10:55:59.599Z,34.33
2023-10-11T10:58:29.067Z,33.37
2023-10-11T11:01:00.841Z,32.75
2023-10-11T11:03:34.288Z,32.60
2023-10-11T11:06:03.933Z,33.62
2023-10-11T11:08:33.335Z,34.19
2023-10-11T11:11:27.158Z,33.88
2023-10-11T11:13:56.216Z,34.89
2023-10-11T11:16:29.992Z,33.79
2023-10-11T11:19:02.224Z,33.60
2023-10-11T11:21:31.316Z,31.76
2023-10-11T11:24:19.646Z,31.72
2023-10-11T11:26:47.633Z,33.17
2023-10-11T11:29:33.544Z,32.96
2023-10-11T11:32:15.630Z,32.18
2023-10-11T11:35:04.033Z,33.52
2023-10-11T11:37:32.403Z,34.63
2023-10-11T11:40:19.718Z,34.20
2023-10-11T11:42:49.186Z,33.28
2023-10-11T11:45:21.034Z,33.72
2023-10-11T11:47:58.006Z,33.23
2023-10-11T11:50:27.195Z,34.11
2023-10-11T11:52:58.872Z,33.82
2023-10-11T11:55:27.538Z,34.64
2023-10-11T11:57:55.602Z,33.40
2023-10-11T12:00:41.096Z,32.70
2023-10-11T12:03:10.358Z,33.34
2023-10-11T12:05:42.377Z,33.59
2023-10-11T12:08:19.857Z,34.13
2023-10-11T12:10:51.522Z,34.27
2023-10-11T12:13:27.473Z,33.52
2023-10-11T12:15:59.123Z,34.25
2023-10-11T12:18:34.103Z,33.60
2023-10-11T12:21:05.165Z,33.04
2023-10-11T12:23:34.588Z,34.21
2023-10-11T12:26:05.473Z,33.80
2023-10-11T12:28:39.247Z,33.42
2023-10-11T12:31:09.094Z,33.20
2023-10-11T12:33:38.690Z,32.81
2023-10-11T12:36:07.900Z,32.17
2023-10-11T12:38:37.739Z,31.67
2023-10-11T12:41:06.896Z,31.01
2023-10-11T12:43:35.387Z,31.70
2023-10-11T12:46:03.884Z,32.27
2023-10-11T12:48:34.842Z,31.74
2023-10-11T12:51:06.541Z,31.63
2023-10-11T12:53:36.518Z,31.59
2023-10-11T12:56:05.257Z,30.53
2023-10-11T12:58:40.881Z,30.27
2023-10-11T13:01:15.014Z,29.90
2023-10-11T13:03:45.167Z,29.37
2023-10-11T13:06:14.391Z,29.44
2023-10-11T13:08:42.982Z,29.26
2023-10-11T13:11:13.297Z,29.10
2023-10-11T13:13:45.213Z,29.38
2023-10-11T13:16:28.435Z,30.19
2023-10-11T13:19:00.469Z,30.54
2023-10-11T13:21:35.130Z,30.34
2023-10-11T13:24:09.787Z,30.14
2023-10-11T13:26:44.038Z,29.62
2023-10-11T13:29:18.132Z,28.89
2023-10-11T13:31:48.409Z,28.86
2023-10-11T13:34:18.610Z,29.87
2023-10-11T13:36:47.067Z,29.99
2023-10-11T13:39:28.083Z,29.01
2023-10-11T13:41:57.556Z,28.72
2023-10-11T13:44:27.499Z,28.75
2023-10-11T13:46:57.853Z,29.00
2023-10-11T13:49:32.220Z,29.58
2023-10-11T13:52:04.472Z,29.13
2023-10-11T13:54:38.051Z,28.71
2023-10-11T13:57:12.243Z,28.01
2023-10-11T13:59:47.751Z,27.77
2023-10-11T14:02:34.736Z,27.48
2023-10-11T14:05:17.554Z,27.84
2023-10-11T14:07:52.448Z,27.77
2023-10-11T14:10:27.657Z,27.73
2023-10-11T14:12:58.066Z,28.21
2023-10-11T14:15:30.901Z,28.77
2023-10-11T14:17:59.454Z,29.00
2023-10-11T14:20:32.048Z,27.55
2023-10-11T14:23:00.617Z,27.02
2023-10-11T14:25:31.706Z,27.14
2023-10-11T14:28:00.178Z,26.73
2023-10-11T14:30:28.738Z,26.84
2023-10-11T14:32:57.247Z,26.86
2023-10-11T14:35:27.724Z,26.91
2023-10-11T14:37:57.591Z,26.77
2023-10-11T14:40:30.332Z,26.30
2023-10-11T14:42:58.736Z,26.19
2023-10-11T14:45:27.563Z,25.89
2023-10-11T14:47:57.129Z,25.89
2023-10-11T14:50:27.216Z,25.90
2023-10-11T14:53:00.187Z,25.52
2023-10-11T14:55:29.286Z,25.47
2023-10-11T14:57:57.965Z,24.95
2023-10-11T15:00:27.440Z,24.68
2023-10-11T15:02:57.197Z,24.77
2023-10-11T15:05:28.269Z,24.66
2023-10-11T15:07:58.671Z,23.98
2023-10-11T15:10:27.920Z,23.77
2023-10-11T15:12:57.501Z,23.65
2023-10-11T15:15:28.766Z,23.00
2023-10-11T15:18:02.995Z,23.03
2023-10-11T15:20:33.346Z,22.48
2023-10-11T15:23:03.543Z,22.65
2023-10-11T15:25:32.690Z,22.34
2023-10-11T15:28:02.090Z,22.67
2023-10-11T15:30:30.704Z,22.89
2023-10-11T15:32:59.415Z,22.43
2023-10-11T15:35:28.219Z,22.45
2023-10-11T15:37:56.822Z,22.31
2023-10-11T15:40:28.380Z,21.14
2023-10-11T15:42:59.241Z,22.40
2023-10-11T15:45:27.933Z,22.03
2023-10-11T15:47:58.368Z,22.30
2023-10-11T15:50:27.516Z,22.20
2023-10-11T15:52:56.026Z,22.13
2023-10-11T15:55:24.684Z,21.89
2023-10-11T15:57:56.938Z,22.17
2023-10-11T16:00:26.126Z,22.23
2023-10-11T16:02:54.713Z,21.95
2023-10-11T16:05:24.263Z,21.91
2023-10-11T16:07:53.671Z,21.52
2023-10-11T16:10:22.147Z,21.28
2023-10-11T16:12:51.615Z,21.08
2023-10-11T16:15:21.543Z,20.88
2023-10-11T16:17:50.203Z,21.24
2023-10-11T16:20:18.707Z,20.97
2023-10-11T16:22:48.303Z,21.11
2023-10-11T16:25:20.212Z,21.22
2023-10-11T16:27:49.807Z,20.97
2023-10-11T16:30:18.874Z,20.83
2023-10-11T16:32:51.530Z,20.75
2023-10-11T16:35:20.216Z,20.64
2023-10-11T16:37:48.569Z,20.73
2023-10-11T16:40:19.592Z,20.74
2023-10-11T16:42:49.473Z,20.80
2023-10-11T16:45:18.410Z,20.44
2023-10-11T16:47:49.136Z,20.31
2023-10-11T16:50:19.056Z,19.98
2023-10-11T16:52:47.526Z,19.99
2023-10-11T16:55:16.050Z,20.29
2023-10-11T16:57:44.576Z,20.34
2023-10-11T17:00:15.156Z,20.46
2023-10-11T17:02:46.645Z,20.31
2023-10-11T17:05:17.391Z,20.24
2023-10-11T17:07:45.931Z,20.25
2023-10-11T17:10:19.137Z,20.18
2023-10-11T17:12:48.212Z,19.83
2023-10-11T17:15:17.091Z,20.16
2023-10-11T17:17:45.897Z,19.59
2023-10-11T17:20:18.693Z,19.83
2023-10-11T17:22:49.035Z,19.16
2023-10-11T17:25:18.219Z,19.46
2023-10-11T17:27:47.005Z,19.56
2023-10-11T17:30:15.795Z,19.72
2023-10-11T17:32:44.539Z,19.64
2023-10-11T17:35:18.409Z,19.58
2023-10-11T17:37:48.186Z,19.62
2023-10-11T17:40:18.834Z,19.22
2023-10-11T17:42:48.551Z,19.40
2023-10-11T17:45:18.750Z,19.41
2023-10-11T17:47:47.305Z,19.03
2023-10-11T17:50:17.609Z,19.22
2023-10-11T17:52:47.198Z,19.42
2023-10-11T17:55:15.671Z,19.49
2023-10-11T17:57:46.282Z,19.39
2023-10-11T18:00:19.990Z,19.40
2023-10-11T18:02:50.131Z,19.11
2023-10-11T18:05:20.489Z,18.71
2023-10-11T18:07:51.071Z,18.39
2023-10-11T18:10:21.075Z,18.65
2023-10-11T18:12:50.952Z,18.98
2023-10-11T18:15:23.415Z,18.74
2023-10-11T18:17:52.203Z,18.81
2023-10-11T18:20:22.822Z,18.87
2023-10-11T18:22:51.923Z,19.01
2023-10-11T18:25:21.488Z,18.69
2023-10-11T18:27:55.359Z,18.60
2023-10-11T18:30:25.172Z,18.46
2023-10-11T18:32:53.898Z,18.16
2023-10-11T18:35:24.449Z,18.32
2023-10-11T18:37:53.042Z,18.41
2023-10-11T18:40:23.748Z,18.47
2023-10-11T18:42:52.800Z,18.60
2023-10-11T18:45:22.337Z,18.55
2023-10-11T18:47:53.575Z,18.62
2023-10-11T18:50:25.265Z,18.72
2023-10-11T18:52:55.883Z,18.70
2023-10-11T18:55:24.746Z,18.43
2023-10-11T18:57:53.950Z,18.54
2023-10-11T19:00:25.444Z,18.53
2023-10-11T19:02:55.091Z,18.60
2023-10-11T19:05:26.513Z,18.51
2023-10-11T19:07:58.788Z,17.94
2023-10-11T19:10:29.972Z,18.18
2023-10-11T19:12:59.317Z,18.12
2023-10-11T19:15:30.535Z,18.00
2023-10-11T19:17:59.639Z,18.28
2023-10-11T19:20:31.540Z,18.07
2023-10-11T19:23:01.944Z,18.37
2023-10-11T19:25:30.699Z,18.24
2023-10-11T19:27:59.761Z,18.46
2023-10-11T19:30:30.143Z,18.43
2023-10-11T19:32:58.767Z,18.33
2023-10-11T19:35:28.649Z,18.39
2023-10-11T19:37:56.962Z,18.53
2023-10-11T19:40:27.150Z,18.61
2023-10-11T19:42:56.816Z,18.59
2023-10-11T19:45:26.108Z,18.39
2023-10-11T19:47:55.582Z,18.42
2023-10-11T19:50:27.695Z,18.53
2023-10-11T19:52:57.721Z,18.57
2023-10-11T19:55:30.248Z,18.54
2023-10-11T19:58:01.224Z,18.51
2023-10-11T20:00:34.602Z,18.50
2023-10-11T20:03:04.536Z,18.10
2023-10-11T20:05:33.079Z,18.33
2023-10-11T20:08:05.305Z,18.32
2023-10-11T20:10:34.555Z,18.23
2023-10-11T20:13:04.114Z,18.22
2023-10-11T20:15:33.088Z,18.23
2023-10-11T20:18:01.635Z,18.21
2023-10-11T20:20:30.230Z,18.17
2023-10-11T20:23:00.601Z,18.20
2023-10-11T20:25:30.533Z,18.14
2023-10-11T20:27:58.983Z,18.12
2023-10-11T20:30:28.221Z,18.10
2023-10-11T20:32:58.355Z,18.03
2023-10-11T20:35:27.683Z,18.07
2023-10-11T20:37:57.535Z,17.93
2023-10-11T20:40:28.747Z,17.41
2023-10-11T20:42:58.848Z,17.83
2023-10-11T20:45:28.221Z,17.81
2023-10-11T20:47:57.103Z,17.82
2023-10-11T20:50:30.311Z,17.83
2023-10-11T20:53:02.019Z,17.80
2023-10-11T20:55:32.728Z,16.75
2023-10-11T20:58:20.056Z,17.49
2023-10-11T21:00:51.101Z,17.60
2023-10-11T21:03:23.049Z,17.70
2023-10-11T21:30:19.462Z,16.51
2023-10-11T21:32:50.153Z,16.77
2023-10-11T21:35:23.367Z,16.89
2023-10-11T21:37:51.857Z,16.86
2023-10-11T21:40:20.459Z,16.87
2023-10-11T21:42:50.836Z,16.76
2023-10-11T21:45:25.726Z,16.36
2023-10-11T21:47:54.669Z,15.95
2023-10-11T21:50:23.963Z,16.13
2023-10-11T21:52:53.306Z,16.11
2023-10-11T21:55:24.549Z,16.10
2023-10-11T21:57:53.909Z,16.12
2023-10-11T22:00:27.356Z,15.93
2023-10-11T22:02:55.869Z,16.30
2023-10-11T22:05:29.036Z,16.35
2023-10-11T22:08:00.230Z,16.49
2023-10-11T22:10:29.482Z,16.40
2023-10-11T22:12:58.375Z,16.44
2023-10-11T22:15:28.334Z,16.41
2023-10-11T22:17:57.148Z,16.45
2023-10-11T22:20:27.941Z,16.49
2023-10-11T22:22:57.664Z,16.44
2023-10-11T22:25:26.621Z,16.41
2023-10-11T22:27:57.038Z,16.34
2023-10-11T22:30:28.590Z,16.37
2023-10-11T22:32:58.521Z,16.44
2023-10-11T22:35:27.321Z,16.46
2023-10-11T22:37:56.829Z,16.44
2023-10-11T22:40:25.227Z,16.41
2023-10-11T22:42:55.190Z,16.20
2023-10-11T22:45:23.694Z,16.23
2023-10-11T22:47:55.021Z,16.13
2023-10-11T22:50:23.470Z,16.13
2023-10-11T22:52:51.925Z,16.14
2023-10-11T22:55:22.527Z,16.13
2023-10-11T22:57:51.622Z,15.66
2023-10-11T23:00:20.861Z,14.71
2023-10-11T23:02:50.652Z,15.95
2023-10-11T23:05:21.511Z,16.00
2023-10-11T23:07:51.546Z,15.68
2023-10-11T23:10:21.812Z,16.10
2023-10-11T23:12:51.686Z,16.15
2023-10-11T23:15:22.385Z,15.71
2023-10-11T23:17:52.099Z,15.82
2023-10-11T23:20:22.353Z,15.92
2023-10-11T23:22:50.784Z,15.94
2023-10-11T23:25:28.339Z,15.92
2023-10-11T23:27:57.835Z,15.96
2023-10-11T23:30:29.165Z,15.86
2023-10-11T23:33:09.382Z,15.99
2023-10-11T23:35:39.458Z,15.83
2023-10-11T23:38:27.500Z,15.79
2023-10-11T23:41:16.035Z,15.72
2023-10-11T23:43:47.815Z,15.63
2023-10-11T23:46:27.410Z,15.40
2023-10-11T23:49:07.960Z,15.23
2023-10-11T23:51:41.055Z,14.87
2023-10-11T23:54:12.561Z,15.30
2023-10-11T23:56:45.610Z,15.23
2023-10-11T23:59:14.929Z,15.00
